Bishop International Airport
KFNT : now visible

Airfield :











YOU CAN JOIN US ON...

 
LOGIN :

Register | Disclaimer

   EN    FR    IT 

 









Legend :    VFR   Marginal VFR   IFR   Intensive IFR   Very Intensive IFR
Visi :
Ceiling :
>= 8 km
>= 3000ft
5 to 8 km
1000 to 3000 ft
1500m to 5 km
500 to 1000 ft
800 to 1500m
200 to 500 ft
< 800m
< 200 ft
Symbols :   Thunderstorms  Fog  Heavy snow  Heavy precipitations  Wind > 20 kt






- Airport Elevation : 782 ft
- IATA code : FNT


KFNT - Bishop International

CURRENT METAR :
  • 092253Z 29020G31KT 4SM -SN SCT023 BKN028 OVC046 03/M02 A2961 RMK AO2 PK WND 29036/2157 RAE08B35E49SNB49 SLP032 P0000 T00331017

EXPIRED METARs :
  • 092153Z 28022G37KT 8SM -RA FEW009 SCT039 OVC085 05/M05 A2958 RMK AO2 PK WND 30038/2117 RAB2055 SLP024 P0000 T00501050
  • 092053Z 27021G29KT 10SM FEW045 BKN055 BKN075 07/M04 A2956 RMK AO2 PK WND 27038/2015 RAB02E51 SLP015 P0000 60000 T00671039 55003

TAF KFNT
Valid from the 09 at 18:00 until the 10 at 18:00 UTC


091732Z 0918/1018 29018G28KT P6SM SCT025 BKN045
TEMPO 0918/0919 6SM SHRAPL SCT020 OVC040
FM092000 29020G30KT P6SM -SHRASN BKN050
FM100200 30015G25KT P6SM BKN060
FM101400 31017G25KT P6SM BKN050



MET'MAP, your aeronautical weather chart ! - Copyright ORBIFLY December 2007 - Disclaimer

ORBIFLY MET'MAP TEAM :

Programming & Development : Alexandra Zaïnal
Concept & original design : Baudouin d'Aumeries
Assistance for programming : Marc-Olivier Méhu
Technical & hardware support : Manuel Goepfert

Contact : metmap@orbifly.com




SOURCES & CREDITS :

   NOAA       Earth
Advisory